createdAt,value
2023-01-21T00:00:34.823Z,100.00
2023-01-21T00:03:02.209Z,100.00
2023-01-21T00:05:30.117Z,100.00
2023-01-21T00:07:57.173Z,100.00
2023-01-21T00:10:24.189Z,100.00
2023-01-21T00:12:51.657Z,100.00
2023-01-21T00:15:18.916Z,100.00
2023-01-21T00:17:46.437Z,100.00
2023-01-21T00:20:13.682Z,100.00
2023-01-21T00:22:41.890Z,100.00
2023-01-21T00:25:09.290Z,100.00
2023-01-21T00:27:36.380Z,100.00
2023-01-21T00:30:03.533Z,100.00
2023-01-21T00:32:30.565Z,100.00
2023-01-21T00:34:57.544Z,100.00
2023-01-21T00:37:25.030Z,100.00
2023-01-21T00:39:51.931Z,100.00
2023-01-21T00:42:19.529Z,100.00
2023-01-21T00:44:46.592Z,100.00
2023-01-21T00:47:14.052Z,100.00
2023-01-21T00:49:41.121Z,100.00
2023-01-21T00:52:08.092Z,100.00
2023-01-21T00:54:35.097Z,100.00
2023-01-21T00:57:02.135Z,100.00
2023-01-21T00:59:30.385Z,100.00
2023-01-21T01:01:57.340Z,100.00
2023-01-21T01:04:24.387Z,100.00
2023-01-21T01:06:51.568Z,100.00
2023-01-21T01:09:18.559Z,100.00
2023-01-21T01:11:45.533Z,100.00
2023-01-21T01:14:12.600Z,100.00
2023-01-21T01:16:39.486Z,100.00
2023-01-21T01:19:06.476Z,100.00
2023-01-21T01:21:33.445Z,100.00
2023-01-21T01:24:03.271Z,100.00
2023-01-21T01:26:30.261Z,100.00
2023-01-21T01:28:57.179Z,100.00
2023-01-21T01:31:24.239Z,100.00
2023-01-21T01:33:51.285Z,100.00
2023-01-21T01:36:21.214Z,100.00
2023-01-21T01:38:48.239Z,100.00
2023-01-21T01:41:22.582Z,100.00
2023-01-21T01:44:30.964Z,100.00
2023-01-21T01:47:00.814Z,100.00
2023-01-21T01:49:27.765Z,100.00
2023-01-21T01:52:03.331Z,100.00
2023-01-21T01:54:35.118Z,100.00
2023-01-21T01:57:06.183Z,100.00
2023-01-21T01:59:33.717Z,100.00
2023-01-21T02:02:05.462Z,100.00
2023-01-21T02:04:39.778Z,100.00
2023-01-21T02:07:07.788Z,100.00
2023-01-21T02:09:35.001Z,100.00
2023-01-21T02:12:03.226Z,100.00
2023-01-21T02:14:31.937Z,100.00
2023-01-21T02:17:37.707Z,100.00
2023-01-21T02:20:44.760Z,100.00
2023-01-21T02:23:59.451Z,100.00
2023-01-21T02:27:00.989Z,100.00
2023-01-21T02:29:58.853Z,100.00
2023-01-21T02:33:18.046Z,100.00
2023-01-21T02:36:29.633Z,100.00
2023-01-21T02:39:21.890Z,100.00
2023-01-21T02:42:21.452Z,100.00
2023-01-21T02:45:03.983Z,100.00
2023-01-21T02:47:41.510Z,100.00
2023-01-21T02:50:46.164Z,100.00
2023-01-21T02:53:31.566Z,100.00
2023-01-21T02:56:21.316Z,100.00
2023-01-21T02:58:53.442Z,100.00
2023-01-21T03:02:16.017Z,100.00
2023-01-21T03:04:57.755Z,100.00
2023-01-21T03:07:35.756Z,100.00
2023-01-21T03:10:11.618Z,100.00
2023-01-21T03:13:02.126Z,100.00
2023-01-21T03:16:13.235Z,100.00
2023-01-21T03:18:46.825Z,100.00
2023-01-21T03:21:19.538Z,100.00
2023-01-21T03:23:50.063Z,100.00
2023-01-21T03:26:22.530Z,100.00
2023-01-21T03:28:54.610Z,100.00
2023-01-21T03:31:25.874Z,100.00
2023-01-21T03:33:56.881Z,100.00
2023-01-21T03:36:49.241Z,100.00
2023-01-21T03:39:36.024Z,100.00
2023-01-21T03:42:03.655Z,100.00
2023-01-21T03:44:30.711Z,100.00
2023-01-21T03:47:35.253Z,100.00
2023-01-21T03:50:34.241Z,100.00
2023-01-21T03:53:01.485Z,100.00
2023-01-21T03:55:28.574Z,100.00
2023-01-21T03:57:55.556Z,100.00
2023-01-21T04:00:22.775Z,100.00
2023-01-21T04:02:49.668Z,100.00
2023-01-21T04:05:16.794Z,100.00
2023-01-21T04:07:43.781Z,100.00
2023-01-21T04:10:11.807Z,100.00
2023-01-21T04:12:38.765Z,100.00
2023-01-21T04:15:06.748Z,100.00
2023-01-21T04:17:33.754Z,100.00
2023-01-21T04:20:00.643Z,100.00
2023-01-21T04:22:27.532Z,100.00
2023-01-21T04:24:54.505Z,100.00
2023-01-21T04:27:21.476Z,100.00
2023-01-21T04:29:48.414Z,100.00
2023-01-21T04:32:15.817Z,100.00
2023-01-21T04:34:42.753Z,100.00
2023-01-21T04:37:09.690Z,100.00
2023-01-21T04:39:36.651Z,100.00
2023-01-21T04:42:03.763Z,100.00
2023-01-21T04:44:30.977Z,100.00
2023-01-21T04:46:58.064Z,100.00
2023-01-21T04:49:24.954Z,100.00
2023-01-21T04:51:52.035Z,100.00
2023-01-21T04:54:18.998Z,100.00
2023-01-21T04:56:45.934Z,100.00
2023-01-21T04:59:12.950Z,100.00
2023-01-21T05:01:39.888Z,100.00
2023-01-21T05:04:06.812Z,100.00
2023-01-21T05:06:33.803Z,100.00
2023-01-21T05:09:00.727Z,100.00
2023-01-21T05:11:27.693Z,100.00
2023-01-21T05:13:54.679Z,100.00
2023-01-21T05:16:21.902Z,100.00
2023-01-21T05:18:49.041Z,100.00
2023-01-21T05:21:15.980Z,100.00
2023-01-21T05:23:42.941Z,100.00
2023-01-21T05:26:09.953Z,100.00
2023-01-21T05:28:36.939Z,100.00
2023-01-21T05:31:04.482Z,100.00
2023-01-21T05:33:33.136Z,100.00
2023-01-21T05:36:01.061Z,100.00
2023-01-21T05:38:28.763Z,100.00
2023-01-21T05:40:59.922Z,100.00
2023-01-21T05:43:27.424Z,100.00
2023-01-21T05:45:54.564Z,100.00
2023-01-21T05:48:22.078Z,100.00
2023-01-21T05:50:49.852Z,100.00
2023-01-21T05:53:17.972Z,100.00
2023-01-21T05:55:44.969Z,100.00
2023-01-21T05:58:11.864Z,100.00
2023-01-21T06:00:38.872Z,100.00
2023-01-21T06:03:05.798Z,100.00
2023-01-21T06:05:32.813Z,100.00
2023-01-21T06:07:59.758Z,100.00
2023-01-21T06:10:26.746Z,100.00
2023-01-21T06:12:53.797Z,100.00
2023-01-21T06:15:20.841Z,100.00
2023-01-21T06:17:47.930Z,100.00
2023-01-21T06:20:15.409Z,100.00
2023-01-21T06:22:42.537Z,100.00
2023-01-21T06:25:10.278Z,100.00
2023-01-21T06:27:38.529Z,100.00
2023-01-21T06:30:09.989Z,100.00
2023-01-21T06:32:38.007Z,100.00
2023-01-21T06:35:05.528Z,100.00
2023-01-21T06:37:32.491Z,100.00
2023-01-21T06:39:59.718Z,100.00
2023-01-21T06:42:26.654Z,100.00
2023-01-21T06:44:53.543Z,100.00
2023-01-21T06:47:20.648Z,100.00
2023-01-21T06:49:47.704Z,100.00
2023-01-21T06:52:14.820Z,100.00
2023-01-21T06:54:43.433Z,100.00
2023-01-21T06:57:10.866Z,100.00
2023-01-21T06:59:37.875Z,100.00
2023-01-21T07:02:05.146Z,100.00
2023-01-21T07:04:32.212Z,100.00
2023-01-21T07:07:00.649Z,100.00
2023-01-21T07:09:29.013Z,100.00
2023-01-21T07:11:56.062Z,100.00
2023-01-21T07:14:24.365Z,100.00
2023-01-21T07:16:51.513Z,100.00
2023-01-21T07:19:18.448Z,100.00
2023-01-21T07:21:46.425Z,100.00
2023-01-21T07:24:13.512Z,100.00
2023-01-21T07:26:41.809Z,100.00
2023-01-21T07:29:10.654Z,100.00
2023-01-21T07:31:39.654Z,100.00
2023-01-21T07:34:07.977Z,100.00
2023-01-21T07:36:34.969Z,100.00
2023-01-21T07:39:01.963Z,100.00
2023-01-21T07:41:29.032Z,100.00
2023-01-21T07:43:56.070Z,100.00
2023-01-21T07:46:23.805Z,100.00
2023-01-21T07:48:51.994Z,100.00
2023-01-21T07:51:22.659Z,100.00
2023-01-21T07:53:49.671Z,100.00
2023-01-21T07:56:18.311Z,100.00
2023-01-21T07:58:47.156Z,100.00
2023-01-21T08:01:14.215Z,100.00
2023-01-21T08:03:41.600Z,100.00
2023-01-21T08:06:08.592Z,100.00
2023-01-21T08:08:35.559Z,100.00
2023-01-21T08:11:02.480Z,100.00
2023-01-21T08:13:29.685Z,98.94
2023-01-21T08:15:57.174Z,100.00
2023-01-21T08:18:25.070Z,100.00
2023-01-21T08:20:56.332Z,100.00
2023-01-21T08:23:23.272Z,100.00
2023-01-21T08:25:50.732Z,100.00
2023-01-21T08:28:18.088Z,100.00
2023-01-21T08:30:45.184Z,100.00
2023-01-21T08:33:12.406Z,100.00
2023-01-21T08:35:39.437Z,100.00
2023-01-21T08:38:06.413Z,100.00
2023-01-21T08:40:33.368Z,100.00
2023-01-21T08:43:01.445Z,100.00
2023-01-21T08:45:29.016Z,100.00
2023-01-21T08:47:56.254Z,100.00
2023-01-21T08:50:23.347Z,100.00
2023-01-21T08:52:54.939Z,100.00
2023-01-21T08:55:25.096Z,100.00
2023-01-21T08:57:52.285Z,100.00
2023-01-21T09:00:20.620Z,99.82
2023-01-21T09:02:48.026Z,99.75
2023-01-21T09:05:16.428Z,100.00
2023-01-21T09:07:45.977Z,99.11
2023-01-21T09:10:34.221Z,93.93
2023-01-21T09:13:08.913Z,95.23
2023-01-21T09:15:40.259Z,96.72
2023-01-21T09:18:07.956Z,97.41
2023-01-21T09:20:35.047Z,98.36
2023-01-21T09:23:02.179Z,98.42
2023-01-21T09:25:29.159Z,97.92
2023-01-21T09:27:56.190Z,98.20
2023-01-21T09:30:23.221Z,96.95
2023-01-21T09:32:50.246Z,92.65
2023-01-21T09:35:17.536Z,90.15
2023-01-21T09:37:44.631Z,90.09
2023-01-21T09:40:17.230Z,87.48
2023-01-21T09:42:44.360Z,87.54
2023-01-21T09:45:15.853Z,85.78
2023-01-21T09:47:46.319Z,84.00
2023-01-21T09:50:19.614Z,82.89
2023-01-21T09:52:49.111Z,82.20
2023-01-21T09:55:23.917Z,80.75
2023-01-21T09:58:41.095Z,80.24
2023-01-21T10:01:26.520Z,80.41
2023-01-21T10:04:17.970Z,80.16
2023-01-21T10:06:58.596Z,77.04
2023-01-21T10:09:58.331Z,76.47
2023-01-21T10:13:03.828Z,73.66
2023-01-21T10:15:40.234Z,74.42
2023-01-21T10:18:13.041Z,73.63
2023-01-21T10:20:48.614Z,73.60
2023-01-21T10:23:22.990Z,74.83
2023-01-21T10:25:50.925Z,73.23
2023-01-21T10:28:27.027Z,73.53
2023-01-21T10:30:58.762Z,71.80
2023-01-21T10:33:27.719Z,71.79
2023-01-21T10:36:44.543Z,69.46
2023-01-21T10:39:50.755Z,69.89
2023-01-21T10:42:56.579Z,70.23
2023-01-21T10:46:21.942Z,70.66
2023-01-21T10:49:41.521Z,67.28
2023-01-21T10:52:23.345Z,66.28
2023-01-21T10:55:45.799Z,63.43
2023-01-21T10:58:27.816Z,65.44
2023-01-21T11:00:57.741Z,63.25
2023-01-21T11:04:04.233Z,61.41
2023-01-21T11:06:33.526Z,63.46
2023-01-21T11:09:04.126Z,61.27
2023-01-21T11:11:35.983Z,60.51
2023-01-21T11:14:04.040Z,60.79
2023-01-21T11:16:46.235Z,59.16
2023-01-21T11:22:22.638Z,59.99
2023-01-21T11:24:51.970Z,59.50
2023-01-21T11:27:42.006Z,59.87
2023-01-21T11:30:54.849Z,56.88
2023-01-21T11:33:24.322Z,58.25
2023-01-21T11:35:53.203Z,57.61
2023-01-21T11:38:40.788Z,56.47
2023-01-21T11:41:21.478Z,56.41
2023-01-21T11:44:16.825Z,58.22
2023-01-21T11:46:44.254Z,58.25
2023-01-21T11:49:34.336Z,58.35
2023-01-21T11:52:18.488Z,56.44
2023-01-21T11:54:45.954Z,57.07
2023-01-21T11:57:29.214Z,58.32
2023-01-21T12:00:00.434Z,58.07
2023-01-21T12:02:29.921Z,58.65
2023-01-21T12:05:33.796Z,59.08
2023-01-21T12:08:03.003Z,58.83
2023-01-21T12:10:34.903Z,56.83
2023-01-21T12:13:18.263Z,57.28
2023-01-21T12:16:12.486Z,57.27
2023-01-21T12:19:07.878Z,58.07
2023-01-21T12:22:08.373Z,58.19
2023-01-21T12:25:27.532Z,57.67
2023-01-21T12:28:22.686Z,57.64
2023-01-21T12:31:21.910Z,54.06
2023-01-21T12:34:13.026Z,54.27
2023-01-21T12:36:53.301Z,55.32
2023-01-21T12:39:25.266Z,56.19
2023-01-21T12:42:02.220Z,56.00
2023-01-21T12:44:37.541Z,55.54
2023-01-21T12:47:13.786Z,55.85
2023-01-21T12:50:13.965Z,55.51
2023-01-21T12:53:14.984Z,55.26
2023-01-21T12:56:18.235Z,55.94
2023-01-21T12:59:00.176Z,55.33
2023-01-21T13:02:14.538Z,56.39
2023-01-21T13:05:23.739Z,56.60
2023-01-21T13:08:17.798Z,57.03
2023-01-21T13:10:49.704Z,58.61
2023-01-21T13:13:29.145Z,59.26
2023-01-21T13:16:01.357Z,59.83
2023-01-21T13:18:39.983Z,60.14
2023-01-21T13:21:48.739Z,61.49
2023-01-21T13:25:12.897Z,62.79
2023-01-21T13:28:00.271Z,63.83
2023-01-21T13:31:14.325Z,65.34
2023-01-21T13:34:06.849Z,66.78
2023-01-21T13:36:56.654Z,66.75
2023-01-21T13:39:42.831Z,64.88
2023-01-21T13:42:45.888Z,65.16
2023-01-21T13:45:43.180Z,66.01
2023-01-21T13:48:52.369Z,66.37
2023-01-21T13:51:54.665Z,66.81
2023-01-21T13:54:45.301Z,66.29
2023-01-21T13:57:49.151Z,65.03
2023-01-21T14:00:31.841Z,66.70
2023-01-21T14:03:47.907Z,67.52
2023-01-21T14:06:27.595Z,68.42
2023-01-21T14:09:04.472Z,69.43
2023-01-21T14:11:57.528Z,68.37
2023-01-21T14:15:01.226Z,69.87
2023-01-21T14:18:12.634Z,71.44
2023-01-21T14:21:29.095Z,72.48
2023-01-21T14:24:25.325Z,73.36
2023-01-21T14:27:35.222Z,75.15
2023-01-21T14:30:39.093Z,76.26
2023-01-21T14:33:15.076Z,76.14
2023-01-21T14:36:28.289Z,75.37
2023-01-21T14:39:20.383Z,74.61
2023-01-21T14:41:55.335Z,74.77
2023-01-21T14:44:45.336Z,75.46
2023-01-21T14:47:23.201Z,74.63
2023-01-21T14:49:53.225Z,75.36
2023-01-21T14:52:27.954Z,74.89
2023-01-21T14:54:55.274Z,76.15
2023-01-21T14:57:32.848Z,76.49
2023-01-21T15:00:22.521Z,77.45
2023-01-21T15:03:14.977Z,78.02
2023-01-21T15:05:48.395Z,78.51
2023-01-21T15:08:28.420Z,78.50
2023-01-21T15:11:06.573Z,80.43
2023-01-21T15:13:39.867Z,81.06
2023-01-21T15:16:50.296Z,80.31
2023-01-21T15:19:21.465Z,80.42
2023-01-21T15:22:23.526Z,80.06
2023-01-21T15:25:18.589Z,82.40
2023-01-21T15:28:46.030Z,83.22
2023-01-21T15:31:41.035Z,85.54
2023-01-21T15:34:15.550Z,85.61
2023-01-21T15:36:48.649Z,86.47
2023-01-21T15:39:32.791Z,87.28
2023-01-21T15:42:38.611Z,87.27
2023-01-21T15:46:10.761Z,87.49
2023-01-21T15:49:06.964Z,87.11
2023-01-21T15:52:21.952Z,87.80
2023-01-21T15:55:17.974Z,88.12
2023-01-21T15:58:35.565Z,89.35
2023-01-21T16:01:17.338Z,89.86
2023-01-21T16:04:19.207Z,89.99
2023-01-21T16:24:30.919Z,90.16
2023-01-21T16:30:08.339Z,91.37
2023-01-21T16:32:37.732Z,91.41
2023-01-21T16:35:05.410Z,91.40
2023-01-21T16:37:33.051Z,91.91
2023-01-21T16:40:32.583Z,92.75
2023-01-21T16:43:15.623Z,93.05
2023-01-21T16:45:55.734Z,91.16
2023-01-21T16:48:26.221Z,91.59
2023-01-21T16:50:54.574Z,92.67
2023-01-21T16:53:23.719Z,94.74
2023-01-21T16:55:53.833Z,95.55
2023-01-21T16:58:29.928Z,95.70
2023-01-21T17:01:06.777Z,96.07
2023-01-21T17:03:34.414Z,97.52
2023-01-21T17:06:10.919Z,98.26
2023-01-21T17:08:38.783Z,97.77
2023-01-21T17:11:11.636Z,98.01
2023-01-21T17:13:43.556Z,97.36
2023-01-21T17:16:23.244Z,97.85
2023-01-21T17:18:57.896Z,97.03
2023-01-21T17:21:55.578Z,96.87
2023-01-21T17:24:31.808Z,97.38
2023-01-21T17:27:10.674Z,97.01
2023-01-21T17:29:38.147Z,97.45
2023-01-21T17:32:26.003Z,96.69
2023-01-21T17:35:15.457Z,97.19
2023-01-21T17:37:57.602Z,97.92
2023-01-21T17:40:58.197Z,98.02
2023-01-21T17:43:27.403Z,97.59
2023-01-21T17:45:57.335Z,98.16
2023-01-21T17:48:30.651Z,98.39
2023-01-21T17:51:13.409Z,98.08
2023-01-21T17:53:46.395Z,98.53
2023-01-21T17:56:13.503Z,98.44
2023-01-21T17:59:00.767Z,98.74
2023-01-21T18:01:29.042Z,99.01
2023-01-21T18:03:56.391Z,99.34
2023-01-21T18:06:28.061Z,100.00
2023-01-21T18:08:58.397Z,100.00
2023-01-21T18:11:25.391Z,100.00
2023-01-21T18:13:52.911Z,100.00
2023-01-21T18:16:20.083Z,100.00
2023-01-21T18:18:47.277Z,100.00
2023-01-21T18:21:19.492Z,100.00
2023-01-21T18:23:47.134Z,100.00
2023-01-21T18:26:30.345Z,100.00
2023-01-21T18:28:57.441Z,100.00
2023-01-21T18:31:25.116Z,100.00
2023-01-21T18:33:52.156Z,100.00
2023-01-21T18:36:19.159Z,100.00
2023-01-21T18:38:46.432Z,100.00
2023-01-21T18:41:13.672Z,100.00
2023-01-21T18:43:40.880Z,100.00
2023-01-21T18:46:16.498Z,100.00
2023-01-21T18:48:43.659Z,100.00
2023-01-21T18:51:12.467Z,100.00
2023-01-21T18:53:39.765Z,100.00
2023-01-21T18:56:12.845Z,100.00
2023-01-21T18:58:39.922Z,100.00
2023-01-21T19:01:21.399Z,100.00
2023-01-21T19:03:52.752Z,100.00
2023-01-21T19:06:20.100Z,100.00
2023-01-21T19:08:48.864Z,100.00
2023-01-21T19:11:16.737Z,100.00
2023-01-21T19:13:43.851Z,100.00
2023-01-21T19:16:16.854Z,100.00
2023-01-21T19:18:43.955Z,100.00
2023-01-21T19:21:11.046Z,100.00
2023-01-21T19:23:38.176Z,100.00
2023-01-21T19:26:05.869Z,100.00
2023-01-21T19:28:34.366Z,100.00
2023-01-21T19:31:01.381Z,100.00
2023-01-21T19:33:28.507Z,100.00
2023-01-21T19:36:03.490Z,100.00
2023-01-21T19:38:30.828Z,100.00
2023-01-21T19:40:57.941Z,100.00
2023-01-21T19:43:24.850Z,100.00
2023-01-21T19:45:52.626Z,100.00
2023-01-21T19:48:21.927Z,100.00
2023-01-21T19:50:49.555Z,100.00
2023-01-21T19:53:18.633Z,100.00
2023-01-21T19:55:46.702Z,100.00
2023-01-21T19:58:20.281Z,100.00
2023-01-21T20:00:49.604Z,100.00
2023-01-21T20:03:21.371Z,100.00
2023-01-21T20:05:51.326Z,100.00
2023-01-21T20:08:24.109Z,100.00
2023-01-21T20:10:51.275Z,100.00
2023-01-21T20:13:18.511Z,100.00
2023-01-21T20:15:47.723Z,100.00
2023-01-21T20:18:24.755Z,100.00
2023-01-21T20:20:53.067Z,100.00
2023-01-21T20:23:21.940Z,100.00
2023-01-21T20:25:51.399Z,100.00
2023-01-21T20:28:23.978Z,100.00
2023-01-21T20:30:53.752Z,100.00
2023-01-21T20:33:26.611Z,100.00
2023-01-21T20:35:55.619Z,100.00
2023-01-21T20:38:34.099Z,100.00
2023-01-21T20:41:03.392Z,100.00
2023-01-21T20:43:30.609Z,100.00
2023-01-21T20:46:03.317Z,100.00
2023-01-21T20:48:42.003Z,100.00
2023-01-21T20:51:09.451Z,100.00
2023-01-21T20:53:36.977Z,100.00
2023-01-21T20:56:28.103Z,100.00
2023-01-21T20:58:55.071Z,100.00
2023-01-21T21:01:24.932Z,100.00
2023-01-21T21:03:52.501Z,100.00
2023-01-21T21:06:22.170Z,100.00
2023-01-21T21:08:49.883Z,100.00
2023-01-21T21:11:18.299Z,100.00
2023-01-21T21:13:48.523Z,100.00
2023-01-21T21:16:27.942Z,100.00
2023-01-21T21:18:56.332Z,100.00
2023-01-21T21:21:24.183Z,100.00
2023-01-21T21:23:52.788Z,100.00
2023-01-21T21:26:27.619Z,100.00
2023-01-21T21:28:55.145Z,100.00
2023-01-21T21:31:22.892Z,100.00
2023-01-21T21:33:50.291Z,100.00
2023-01-21T21:36:22.660Z,100.00
2023-01-21T21:38:49.997Z,100.00
2023-01-21T21:41:38.245Z,100.00
2023-01-21T21:44:06.161Z,100.00
2023-01-21T21:46:51.610Z,100.00
2023-01-21T21:49:18.935Z,100.00
2023-01-21T21:51:46.136Z,100.00
2023-01-21T21:54:15.761Z,100.00
2023-01-21T21:56:42.883Z,100.00
2023-01-21T21:59:12.013Z,100.00
2023-01-21T22:01:40.706Z,100.00
2023-01-21T22:04:07.796Z,100.00
2023-01-21T22:06:34.737Z,100.00
2023-01-21T22:09:02.272Z,100.00
2023-01-21T22:11:29.743Z,100.00
2023-01-21T22:13:57.505Z,100.00
2023-01-21T22:16:28.924Z,100.00
2023-01-21T22:18:57.842Z,100.00
2023-01-21T22:21:32.022Z,100.00
2023-01-21T22:23:59.417Z,100.00
2023-01-21T22:26:28.223Z,100.00
2023-01-21T22:28:55.233Z,100.00
2023-01-21T22:31:24.655Z,100.00
2023-01-21T22:33:52.147Z,100.00
2023-01-21T22:36:21.948Z,100.00
2023-01-21T22:38:49.383Z,100.00
2023-01-21T22:41:19.117Z,100.00
2023-01-21T22:43:48.640Z,100.00
2023-01-21T22:46:24.611Z,100.00
2023-01-21T22:48:53.253Z,100.00
2023-01-21T22:51:21.572Z,100.00
2023-01-21T22:53:49.746Z,100.00
2023-01-21T22:56:18.835Z,100.00
2023-01-21T22:58:46.096Z,100.00
2023-01-21T23:01:32.911Z,100.00
2023-01-21T23:04:00.457Z,100.00
2023-01-21T23:06:27.648Z,100.00
2023-01-21T23:08:54.971Z,100.00
2023-01-21T23:11:22.220Z,100.00
2023-01-21T23:13:53.497Z,100.00
2023-01-21T23:16:24.050Z,100.00
2023-01-21T23:18:51.197Z,100.00
2023-01-21T23:21:22.358Z,100.00
2023-01-21T23:23:49.960Z,100.00
2023-01-21T23:26:19.396Z,100.00
2023-01-21T23:28:46.653Z,100.00
2023-01-21T23:31:16.850Z,100.00
2023-01-21T23:33:44.333Z,100.00
2023-01-21T23:36:13.755Z,100.00
2023-01-21T23:38:41.908Z,100.00
2023-01-21T23:41:11.239Z,100.00
2023-01-21T23:43:38.552Z,100.00
2023-01-21T23:46:06.692Z,100.00
2023-01-21T23:48:33.715Z,100.00
2023-01-21T23:51:10.188Z,100.00
2023-01-21T23:53:37.150Z,100.00
2023-01-21T23:56:22.568Z,100.00
2023-01-21T23:58:49.994Z,100.00
